sensor_id;sensor_type;location;lat;lon;timestamp;pressure;altitude;pressure_sealevel;temperature;humidity
19208;BME280;9737;59.466;18.036;2023-04-06T00:00:29;94658.25;;;-4.74;64.57
19208;BME280;9737;59.466;18.036;2023-04-06T00:02:57;94674.47;;;-4.72;64.70
19208;BME280;9737;59.466;18.036;2023-04-06T00:05:25;94689.38;;;-4.65;64.83
19208;BME280;9737;59.466;18.036;2023-04-06T00:07:54;94687.75;;;-4.67;64.87
19208;BME280;9737;59.466;18.036;2023-04-06T00:10:24;94719.84;;;-4.59;64.92
19208;BME280;9737;59.466;18.036;2023-04-06T00:12:53;94713.03;;;-4.60;64.99
19208;BME280;9737;59.466;18.036;2023-04-06T00:15:21;94706.53;;;-4.64;64.50
19208;BME280;9737;59.466;18.036;2023-04-06T00:17:49;94672.84;;;-4.73;64.83
19208;BME280;9737;59.466;18.036;2023-04-06T00:20:17;94635.91;;;-4.83;64.63
19208;BME280;9737;59.466;18.036;2023-04-06T00:22:46;94611.78;;;-4.91;64.83
19208;BME280;9737;59.466;18.036;2023-04-06T00:25:14;94608.06;;;-4.89;65.07
19208;BME280;9737;59.466;18.036;2023-04-06T00:27:44;94612.06;;;-4.94;64.79
19208;BME280;9737;59.466;18.036;2023-04-06T00:30:12;94650.16;;;-4.79;64.81
19208;BME280;9737;59.466;18.036;2023-04-06T00:32:40;94675.28;;;-4.71;64.97
19208;BME280;9737;59.466;18.036;2023-04-06T00:35:08;94688.72;;;-4.68;64.98
19208;BME280;9737;59.466;18.036;2023-04-06T00:37:36;94699.44;;;-4.62;65.09
19208;BME280;9737;59.466;18.036;2023-04-06T00:40:05;94726.50;;;-4.57;64.99
19208;BME280;9737;59.466;18.036;2023-04-06T00:42:34;94744.16;;;-4.52;65.15
19208;BME280;9737;59.466;18.036;2023-04-06T00:45:03;94758.41;;;-4.48;64.92
19208;BME280;9737;59.466;18.036;2023-04-06T00:47:32;94780.47;;;-4.44;65.19
19208;BME280;9737;59.466;18.036;2023-04-06T00:50:00;94798.94;;;-4.39;65.29
19208;BME280;9737;59.466;18.036;2023-04-06T00:52:28;94795.38;;;-4.38;65.30
19208;BME280;9737;59.466;18.036;2023-04-06T00:54:56;94815.78;;;-4.35;65.32
19208;BME280;9737;59.466;18.036;2023-04-06T00:57:24;94821.66;;;-4.33;65.23
19208;BME280;9737;59.466;18.036;2023-04-06T00:59:52;94818.38;;;-4.35;65.25
19208;BME280;9737;59.466;18.036;2023-04-06T01:02:23;94810.59;;;-4.35;65.50
19208;BME280;9737;59.466;18.036;2023-04-06T01:04:51;94795.69;;;-4.41;65.36
19208;BME280;9737;59.466;18.036;2023-04-06T01:07:20;94771.22;;;-4.47;65.48
19208;BME280;9737;59.466;18.036;2023-04-06T01:09:48;94774.63;;;-4.46;65.38
19208;BME280;9737;59.466;18.036;2023-04-06T01:12:16;94772.03;;;-4.46;65.33
19208;BME280;9737;59.466;18.036;2023-04-06T01:14:44;94772.03;;;-4.46;65.62
19208;BME280;9737;59.466;18.036;2023-04-06T01:17:12;94793.75;;;-4.39;65.44
19208;BME280;9737;59.466;18.036;2023-04-06T01:19:42;94807.03;;;-4.34;65.53
19208;BME280;9737;59.466;18.036;2023-04-06T01:22:15;94827.50;;;-4.31;65.71
19208;BME280;9737;59.466;18.036;2023-04-06T01:24:43;94838.38;;;-4.27;65.82
19208;BME280;9737;59.466;18.036;2023-04-06T01:27:11;94851.00;;;-4.24;65.58
19208;BME280;9737;59.466;18.036;2023-04-06T01:29:39;94868.03;;;-4.22;65.80
19208;BME280;9737;59.466;18.036;2023-04-06T01:32:08;94878.75;;;-4.17;65.95
19208;BME280;9737;59.466;18.036;2023-04-06T01:34:36;94907.75;;;-4.13;66.02
19208;BME280;9737;59.466;18.036;2023-04-06T01:37:04;94915.06;;;-4.09;65.81
19208;BME280;9737;59.466;18.036;2023-04-06T01:39:33;94922.69;;;-4.07;65.87
19208;BME280;9737;59.466;18.036;2023-04-06T01:42:01;94932.63;;;-4.02;65.84
19208;BME280;9737;59.466;18.036;2023-04-06T01:44:29;94979.03;;;-3.91;65.90
19208;BME280;9737;59.466;18.036;2023-04-06T01:46:57;94974.00;;;-3.93;66.14
19208;BME280;9737;59.466;18.036;2023-04-06T01:49:25;94968.97;;;-3.94;66.15
19208;BME280;9737;59.466;18.036;2023-04-06T01:51:53;94961.50;;;-3.97;66.14
19208;BME280;9737;59.466;18.036;2023-04-06T01:54:22;94952.75;;;-3.96;66.10
19208;BME280;9737;59.466;18.036;2023-04-06T01:56:52;94947.88;;;-3.99;66.25
19208;BME280;9737;59.466;18.036;2023-04-06T01:59:21;94949.81;;;-4.01;66.11
19208;BME280;9737;59.466;18.036;2023-04-06T02:01:48;94937.00;;;-4.03;66.11
19208;BME280;9737;59.466;18.036;2023-04-06T02:04:18;94928.69;;;-4.07;66.26
19208;BME280;9737;59.466;18.036;2023-04-06T02:06:46;94907.59;;;-4.12;66.05
19208;BME280;9737;59.466;18.036;2023-04-06T02:09:14;94931.97;;;-4.04;66.34
19208;BME280;9737;59.466;18.036;2023-04-06T02:11:42;94972.22;;;-3.92;66.18
19208;BME280;9737;59.466;18.036;2023-04-06T02:14:11;94953.72;;;-3.97;66.40
19208;BME280;9737;59.466;18.036;2023-04-06T02:16:39;94937.16;;;-4.04;66.42
19208;BME280;9737;59.466;18.036;2023-04-06T02:19:07;94883.28;;;-4.19;66.52
19208;BME280;9737;59.466;18.036;2023-04-06T02:21:36;94855.38;;;-4.25;66.13
19208;BME280;9737;59.466;18.036;2023-04-06T02:24:04;94832.69;;;-4.31;66.51
19208;BME280;9737;59.466;18.036;2023-04-06T02:26:33;94797.31;;;-4.40;66.57
19208;BME280;9737;59.466;18.036;2023-04-06T02:29:03;94782.41;;;-4.46;66.53
19208;BME280;9737;59.466;18.036;2023-04-06T02:34:05;94760.69;;;-4.53;66.51
19208;BME280;9737;59.466;18.036;2023-04-06T02:36:33;94764.72;;;-4.51;66.42
19208;BME280;9737;59.466;18.036;2023-04-06T02:39:01;94784.03;;;-4.45;66.36
19208;BME280;9737;59.466;18.036;2023-04-06T02:41:30;94815.31;;;-4.39;67.02
19208;BME280;9737;59.466;18.036;2023-04-06T02:43:57;94833.66;;;-4.32;66.51
19208;BME280;9737;59.466;18.036;2023-04-06T02:46:25;94846.63;;;-4.32;66.65
19208;BME280;9737;59.466;18.036;2023-04-06T02:48:53;94912.78;;;-4.12;66.65
19208;BME280;9737;59.466;18.036;2023-04-06T02:51:23;94937.66;;;-4.01;66.87
19208;BME280;9737;59.466;18.036;2023-04-06T02:53:51;94967.34;;;-3.95;66.84
19208;BME280;9737;59.466;18.036;2023-04-06T02:56:18;95001.09;;;-3.87;66.90
19208;BME280;9737;59.466;18.036;2023-04-06T02:58:47;95028.03;;;-3.80;66.99
19208;BME280;9737;59.466;18.036;2023-04-06T03:01:15;95045.78;;;-3.76;67.04
19208;BME280;9737;59.466;18.036;2023-04-06T03:03:43;95071.91;;;-3.69;66.96
19208;BME280;9737;59.466;18.036;2023-04-06T03:06:11;95083.44;;;-3.63;67.32
19208;BME280;9737;59.466;18.036;2023-04-06T03:08:40;95101.81;;;-3.57;67.17
19208;BME280;9737;59.466;18.036;2023-04-06T03:11:08;95122.25;;;-3.54;67.26
19208;BME280;9737;59.466;18.036;2023-04-06T03:13:37;95129.41;;;-3.56;67.26
19208;BME280;9737;59.466;18.036;2023-04-06T03:16:05;95151.69;;;-3.45;67.12
19208;BME280;9737;59.466;18.036;2023-04-06T03:18:33;95180.59;;;-3.40;67.25
19208;BME280;9737;59.466;18.036;2023-04-06T03:21:01;95186.31;;;-3.36;67.45
19208;BME280;9737;59.466;18.036;2023-04-06T03:23:29;95190.53;;;-3.35;67.29
19208;BME280;9737;59.466;18.036;2023-04-06T03:25:58;95216.84;;;-3.30;67.60
19208;BME280;9737;59.466;18.036;2023-04-06T03:28:26;95212.47;;;-3.30;67.49
19208;BME280;9737;59.466;18.036;2023-04-06T03:30:54;95226.25;;;-3.29;67.45
19208;BME280;9737;59.466;18.036;2023-04-06T03:33:22;95226.94;;;-3.27;67.52
19208;BME280;9737;59.466;18.036;2023-04-06T03:35:50;95232.78;;;-3.25;67.57
19208;BME280;9737;59.466;18.036;2023-04-06T03:38:18;95238.44;;;-3.30;67.63
19208;BME280;9737;59.466;18.036;2023-04-06T03:40:46;95263.22;;;-3.18;67.66
19208;BME280;9737;59.466;18.036;2023-04-06T03:43:15;95329.22;;;-3.02;67.66
19208;BME280;9737;59.466;18.036;2023-04-06T03:45:43;95357.53;;;-2.91;67.81
19208;BME280;9737;59.466;18.036;2023-04-06T03:48:11;95368.75;;;-2.91;67.95
19208;BME280;9737;59.466;18.036;2023-04-06T03:50:39;95380.50;;;-2.87;67.88
19208;BME280;9737;59.466;18.036;2023-04-06T03:53:07;95382.94;;;-2.85;67.89
19208;BME280;9737;59.466;18.036;2023-04-06T03:55:35;95399.03;;;-2.82;68.13
19208;BME280;9737;59.466;18.036;2023-04-06T03:58:03;95415.16;;;-2.78;68.25
19208;BME280;9737;59.466;18.036;2023-04-06T04:00:32;95429.63;;;-2.75;67.97
19208;BME280;9737;59.466;18.036;2023-04-06T04:03:00;95442.00;;;-2.69;68.05
19208;BME280;9737;59.466;18.036;2023-04-06T04:05:29;95460.72;;;-2.66;68.28
19208;BME280;9737;59.466;18.036;2023-04-06T04:07:57;95482.84;;;-2.62;68.08
19208;BME280;9737;59.466;18.036;2023-04-06T04:10:24;95505.81;;;-2.57;68.41
19208;BME280;9737;59.466;18.036;2023-04-06T04:12:52;95508.13;;;-2.54;68.22
19208;BME280;9737;59.466;18.036;2023-04-06T04:15:20;95535.28;;;-2.48;68.29
19208;BME280;9737;59.466;18.036;2023-04-06T04:17:50;95550.44;;;-2.44;68.20
19208;BME280;9737;59.466;18.036;2023-04-06T04:20:17;95551.09;;;-2.42;68.48
19208;BME280;9737;59.466;18.036;2023-04-06T04:22:45;95566.41;;;-2.39;68.47
19208;BME280;9737;59.466;18.036;2023-04-06T04:25:13;95585.94;;;-2.35;68.23
19208;BME280;9737;59.466;18.036;2023-04-06T04:27:41;95570.59;;;-2.46;68.65
19208;BME280;9737;59.466;18.036;2023-04-06T04:30:09;95601.94;;;-2.30;68.67
19208;BME280;9737;59.466;18.036;2023-04-06T04:32:37;95622.06;;;-2.32;68.56
19208;BME280;9737;59.466;18.036;2023-04-06T04:35:08;95649.19;;;-2.16;68.76
19208;BME280;9737;59.466;18.036;2023-04-06T04:37:36;95661.25;;;-2.15;68.82
19208;BME280;9737;59.466;18.036;2023-04-06T04:40:04;95673.81;;;-2.11;69.04
19208;BME280;9737;59.466;18.036;2023-04-06T04:42:33;95695.13;;;-2.07;68.72
19208;BME280;9737;59.466;18.036;2023-04-06T04:45:01;95722.22;;;-2.00;69.03
19208;BME280;9737;59.466;18.036;2023-04-06T04:47:29;95733.97;;;-1.96;68.98
19208;BME280;9737;59.466;18.036;2023-04-06T04:49:57;95755.84;;;-1.89;69.06
19208;BME280;9737;59.466;18.036;2023-04-06T04:52:26;95790.72;;;-1.82;69.02
19208;BME280;9737;59.466;18.036;2023-04-06T04:54:54;95785.97;;;-1.87;68.90
19208;BME280;9737;59.466;18.036;2023-04-06T04:57:22;95816.00;;;-1.74;69.36
19208;BME280;9737;59.466;18.036;2023-04-06T04:59:50;95804.09;;;-1.77;69.37
19208;BME280;9737;59.466;18.036;2023-04-06T05:02:18;95806.72;;;-1.77;69.11
19208;BME280;9737;59.466;18.036;2023-04-06T05:04:46;95843.13;;;-1.67;69.64
19208;BME280;9737;59.466;18.036;2023-04-06T05:07:14;95894.84;;;-1.54;69.43
19208;BME280;9737;59.466;18.036;2023-04-06T05:09:46;95933.72;;;-1.43;69.32
19208;BME280;9737;59.466;18.036;2023-04-06T05:12:14;95967.66;;;-1.35;69.25
19208;BME280;9737;59.466;18.036;2023-04-06T05:14:43;95994.63;;;-1.27;69.62
19208;BME280;9737;59.466;18.036;2023-04-06T05:17:11;96019.94;;;-1.19;69.80
19208;BME280;9737;59.466;18.036;2023-04-06T05:19:39;96084.66;;;-1.05;69.56
19208;BME280;9737;59.466;18.036;2023-04-06T05:22:07;96140.53;;;-0.89;70.08
19208;BME280;9737;59.466;18.036;2023-04-06T05:24:37;96208.56;;;-0.73;69.72
19208;BME280;9737;59.466;18.036;2023-04-06T05:27:08;96242.13;;;-0.60;69.82
19208;BME280;9737;59.466;18.036;2023-04-06T05:29:36;96281.25;;;-0.51;69.80
19208;BME280;9737;59.466;18.036;2023-04-06T05:32:04;96329.81;;;-0.40;69.80
19208;BME280;9737;59.466;18.036;2023-04-06T05:34:32;96374.00;;;-0.29;70.26
19208;BME280;9737;59.466;18.036;2023-04-06T05:37:00;96395.16;;;-0.22;70.08
19208;BME280;9737;59.466;18.036;2023-04-06T05:39:28;96458.84;;;-0.06;70.21
19208;BME280;9737;59.466;18.036;2023-04-06T05:41:56;96509.00;;;0.08;70.46
19208;BME280;9737;59.466;18.036;2023-04-06T05:44:25;96564.22;;;0.22;70.44
19208;BME280;9737;59.466;18.036;2023-04-06T05:46:53;96590.47;;;0.30;70.35
19208;BME280;9737;59.466;18.036;2023-04-06T05:49:21;96630.75;;;0.38;70.83
19208;BME280;9737;59.466;18.036;2023-04-06T05:51:49;96657.00;;;0.46;70.84
19208;BME280;9737;59.466;18.036;2023-04-06T05:54:17;96696.31;;;0.54;70.46
19208;BME280;9737;59.466;18.036;2023-04-06T05:56:45;96760.97;;;0.71;70.70
19208;BME280;9737;59.466;18.036;2023-04-06T05:59:13;96823.06;;;0.88;70.64
19208;BME280;9737;59.466;18.036;2023-04-06T06:01:43;96874.41;;;0.99;71.12
19208;BME280;9737;59.466;18.036;2023-04-06T06:04:11;96912.66;;;1.10;70.74
19208;BME280;9737;59.466;18.036;2023-04-06T06:06:39;96939.13;;;1.16;70.71
19208;BME280;9737;59.466;18.036;2023-04-06T06:09:07;96953.44;;;1.22;71.13
19208;BME280;9737;59.466;18.036;2023-04-06T06:11:35;96986.63;;;1.31;71.42
19208;BME280;9737;59.466;18.036;2023-04-06T06:14:03;97039.53;;;1.44;71.13
19208;BME280;9737;59.466;18.036;2023-04-06T06:16:32;97101.97;;;1.59;71.42
19208;BME280;9737;59.466;18.036;2023-04-06T06:19:01;97182.25;;;1.79;71.39
19208;BME280;9737;59.466;18.036;2023-04-06T06:21:31;97213.97;;;1.85;71.43
19208;BME280;9737;59.466;18.036;2023-04-06T06:23:59;97202.66;;;1.85;71.45
19208;BME280;9737;59.466;18.036;2023-04-06T06:26:27;97271.06;;;2.01;71.64
19208;BME280;9737;59.466;18.036;2023-04-06T06:28:55;97329.06;;;2.17;71.67
19208;BME280;9737;59.466;18.036;2023-04-06T06:31:23;97382.06;;;2.31;71.63
19208;BME280;9737;59.466;18.036;2023-04-06T06:33:52;97444.50;;;2.46;71.63
19208;BME280;9737;59.466;18.036;2023-04-06T06:36:21;97549.81;;;2.72;71.86
19208;BME280;9737;59.466;18.036;2023-04-06T06:38:49;97517.19;;;2.65;71.87
19208;BME280;9737;59.466;18.036;2023-04-06T06:41:17;97589.75;;;2.86;71.91
19208;BME280;9737;59.466;18.036;2023-04-06T06:43:45;97618.94;;;2.92;72.08
19208;BME280;9737;59.466;18.036;2023-04-06T06:46:12;97678.97;;;3.06;72.14
19208;BME280;9737;59.466;18.036;2023-04-06T06:48:41;97758.66;;;3.26;72.04
19208;BME280;9737;59.466;18.036;2023-04-06T06:51:09;97788.69;;;3.33;71.98
19208;BME280;9737;59.466;18.036;2023-04-06T06:53:39;97734.00;;;3.18;72.04
19208;BME280;9737;59.466;18.036;2023-04-06T06:56:07;97709.94;;;3.13;72.24
19208;BME280;9737;59.466;18.036;2023-04-06T06:58:35;97765.59;;;3.27;72.19
19208;BME280;9737;59.466;18.036;2023-04-06T07:01:03;97923.41;;;3.66;72.48
19208;BME280;9737;59.466;18.036;2023-04-06T07:03:32;97991.88;;;3.85;72.49
19208;BME280;9737;59.466;18.036;2023-04-06T07:06:00;98045.88;;;3.89;72.34
19208;BME280;9737;59.466;18.036;2023-04-06T07:08:27;98174.88;;;4.29;72.39
19208;BME280;9737;59.466;18.036;2023-04-06T07:10:57;98449.00;;;5.00;72.23
19208;BME280;9737;59.466;18.036;2023-04-06T07:13:25;98325.81;;;4.72;72.93
19208;BME280;9737;59.466;18.036;2023-04-06T07:15:54;98393.97;;;4.86;72.37
19208;BME280;9737;59.466;18.036;2023-04-06T07:18:22;98418.97;;;4.91;72.89
19208;BME280;9737;59.466;18.036;2023-04-06T07:20:50;98521.25;;;5.18;73.00
19208;BME280;9737;59.466;18.036;2023-04-06T07:23:18;98652.75;;;5.55;72.75
19208;BME280;9737;59.466;18.036;2023-04-06T07:25:46;98733.00;;;5.73;73.34
19208;BME280;9737;59.466;18.036;2023-04-06T07:28:15;98701.25;;;5.64;73.21
19208;BME280;9737;59.466;18.036;2023-04-06T07:30:43;98672.03;;;5.55;73.13
19208;BME280;9737;59.466;18.036;2023-04-06T07:33:11;98669.53;;;5.54;73.02
19208;BME280;9737;59.466;18.036;2023-04-06T07:35:39;98813.34;;;5.92;73.46
19208;BME280;9737;59.466;18.036;2023-04-06T07:38:07;98955.84;;;6.25;73.00
19208;BME280;9737;59.466;18.036;2023-04-06T07:40:35;99112.88;;;6.66;73.27
19208;BME280;9737;59.466;18.036;2023-04-06T07:43:03;98953.31;;;6.24;73.61
19208;BME280;9737;59.466;18.036;2023-04-06T07:45:32;98953.19;;;6.25;73.16
19208;BME280;9737;59.466;18.036;2023-04-06T07:48:00;98935.19;;;6.19;72.85
19208;BME280;9737;59.466;18.036;2023-04-06T07:50:28;98966.41;;;6.25;73.40
19208;BME280;9737;59.466;18.036;2023-04-06T07:52:56;99004.31;;;6.35;72.88
19208;BME280;9737;59.466;18.036;2023-04-06T07:55:24;99194.28;;;6.83;73.19
19208;BME280;9737;59.466;18.036;2023-04-06T07:57:52;99366.19;;;7.28;73.46
19208;BME280;9737;59.466;18.036;2023-04-06T08:00:20;99406.25;;;7.34;73.44
19208;BME280;9737;59.466;18.036;2023-04-06T08:02:50;99409.38;;;7.39;73.54
19208;BME280;9737;59.466;18.036;2023-04-06T08:05:18;99460.50;;;7.51;73.51
19208;BME280;9737;59.466;18.036;2023-04-06T08:07:46;99425.59;;;7.35;73.44
19208;BME280;9737;59.466;18.036;2023-04-06T08:10:13;99519.47;;;7.64;73.34
19208;BME280;9737;59.466;18.036;2023-04-06T08:12:42;99736.91;;;8.19;73.33
19208;BME280;9737;59.466;18.036;2023-04-06T08:15:10;99701.34;;;8.10;73.09
19208;BME280;9737;59.466;18.036;2023-04-06T08:17:38;99720.38;;;8.15;73.40
19208;BME280;9737;59.466;18.036;2023-04-06T08:20:08;99455.44;;;7.48;73.37
19208;BME280;9737;59.466;18.036;2023-04-06T08:22:36;99402.75;;;7.34;73.37
19208;BME280;9737;59.466;18.036;2023-04-06T08:25:04;99756.16;;;8.21;73.48
19208;BME280;9737;59.466;18.036;2023-04-06T08:27:32;100234.53;;;9.39;73.15
19208;BME280;9737;59.466;18.036;2023-04-06T08:30:00;100605.25;;;10.31;74.10
19208;BME280;9737;59.466;18.036;2023-04-06T08:32:28;100802.31;;;10.78;73.96
19208;BME280;9737;59.466;18.036;2023-04-06T08:34:56;100657.78;;;10.40;74.02
19208;BME280;9737;59.466;18.036;2023-04-06T08:37:26;100206.00;;;9.30;73.27
19208;BME280;9737;59.466;18.036;2023-04-06T08:39:54;99837.72;;;8.41;73.39
19208;BME280;9737;59.466;18.036;2023-04-06T08:42:25;99586.50;;;7.76;73.12
19208;BME280;9737;59.466;18.036;2023-04-06T08:44:53;99506.84;;;7.57;73.22
19208;BME280;9737;59.466;18.036;2023-04-06T08:47:22;99447.00;;;7.43;73.32
19208;BME280;9737;59.466;18.036;2023-04-06T08:49:51;99511.28;;;7.56;73.51
19208;BME280;9737;59.466;18.036;2023-04-06T08:52:20;99432.22;;;7.40;73.01
19208;BME280;9737;59.466;18.036;2023-04-06T08:54:49;99308.69;;;7.07;72.99
19208;BME280;9737;59.466;18.036;2023-04-06T08:57:18;99232.25;;;6.82;73.34
19208;BME280;9737;59.466;18.036;2023-04-06T08:59:46;99136.72;;;6.64;72.52
19208;BME280;9737;59.466;18.036;2023-04-06T09:02:17;99072.25;;;6.44;72.72
19208;BME280;9737;59.466;18.036;2023-04-06T09:04:45;99051.38;;;6.41;72.75
19208;BME280;9737;59.466;18.036;2023-04-06T09:07:14;98943.50;;;6.14;73.04
19208;BME280;9737;59.466;18.036;2023-04-06T09:09:42;99014.16;;;6.33;72.49
19208;BME280;9737;59.466;18.036;2023-04-06T09:12:24;99075.38;;;6.49;72.60
19208;BME280;9737;59.466;18.036;2023-04-06T09:14:53;99033.13;;;6.38;72.62
19208;BME280;9737;59.466;18.036;2023-04-06T09:17:23;98926.09;;;6.12;73.06
19208;BME280;9737;59.466;18.036;2023-04-06T09:19:51;98771.59;;;5.74;72.73
19208;BME280;9737;59.466;18.036;2023-04-06T09:22:20;98809.75;;;5.81;72.88
19208;BME280;9737;59.466;18.036;2023-04-06T09:24:48;98780.47;;;5.73;72.26
19208;BME280;9737;59.466;18.036;2023-04-06T09:27:17;98749.31;;;5.67;72.44
19208;BME280;9737;59.466;18.036;2023-04-06T09:29:46;98891.66;;;6.02;72.86
19208;BME280;9737;59.466;18.036;2023-04-06T09:32:14;99008.88;;;6.33;72.71
19208;BME280;9737;59.466;18.036;2023-04-06T09:34:43;99204.13;;;6.81;72.27
19208;BME280;9737;59.466;18.036;2023-04-06T09:37:17;99250.03;;;6.91;72.94
19208;BME280;9737;59.466;18.036;2023-04-06T09:39:46;99374.59;;;7.22;72.25
19208;BME280;9737;59.466;18.036;2023-04-06T09:42:23;99410.69;;;7.34;72.66
19208;BME280;9737;59.466;18.036;2023-04-06T09:44:54;99489.50;;;7.53;72.85
19208;BME280;9737;59.466;18.036;2023-04-06T09:47:22;99859.28;;;8.48;72.70
19208;BME280;9737;59.466;18.036;2023-04-06T09:49:56;100139.91;;;9.14;72.79
19208;BME280;9737;59.466;18.036;2023-04-06T09:52:26;100186.03;;;9.24;72.87
19208;BME280;9737;59.466;18.036;2023-04-06T09:54:55;100292.03;;;9.51;73.13
19208;BME280;9737;59.466;18.036;2023-04-06T09:57:32;100812.84;;;10.80;72.82
19208;BME280;9737;59.466;18.036;2023-04-06T10:00:05;100899.31;;;11.00;72.63
19208;BME280;9737;59.466;18.036;2023-04-06T10:02:43;100885.44;;;10.95;72.50
19208;BME280;9737;59.466;18.036;2023-04-06T10:05:18;100820.19;;;10.76;72.74
19208;BME280;9737;59.466;18.036;2023-04-06T10:07:48;100625.56;;;10.32;72.64
19208;BME280;9737;59.466;18.036;2023-04-06T10:10:26;100295.88;;;9.47;72.83
19208;BME280;9737;59.466;18.036;2023-04-06T10:12:55;100140.84;;;9.13;72.28
19208;BME280;9737;59.466;18.036;2023-04-06T10:15:25;99946.34;;;8.65;72.45
19208;BME280;9737;59.466;18.036;2023-04-06T10:17:52;99845.44;;;8.31;72.17
19208;BME280;9737;59.466;18.036;2023-04-06T10:20:25;99939.59;;;8.61;72.40
19208;BME280;9737;59.466;18.036;2023-04-06T10:22:59;99819.47;;;8.36;72.25
19208;BME280;9737;59.466;18.036;2023-04-06T10:25:29;99848.31;;;8.41;72.26
19208;BME280;9737;59.466;18.036;2023-04-06T10:28:02;99900.41;;;8.53;72.01
19208;BME280;9737;59.466;18.036;2023-04-06T10:30:34;99976.66;;;8.74;72.12
19208;BME280;9737;59.466;18.036;2023-04-06T10:33:12;99843.84;;;8.42;72.05
19208;BME280;9737;59.466;18.036;2023-04-06T10:35:41;99937.66;;;8.63;72.04
19208;BME280;9737;59.466;18.036;2023-04-06T10:38:09;100033.03;;;8.88;71.98
19208;BME280;9737;59.466;18.036;2023-04-06T10:40:39;100101.84;;;9.03;72.08
19208;BME280;9737;59.466;18.036;2023-04-06T10:43:10;99908.22;;;8.55;71.85
19208;BME280;9737;59.466;18.036;2023-04-06T10:45:40;99835.06;;;8.41;71.54
19208;BME280;9737;59.466;18.036;2023-04-06T10:48:13;99927.19;;;8.61;71.44
19208;BME280;9737;59.466;18.036;2023-04-06T10:50:43;99831.88;;;8.36;71.90
19208;BME280;9737;59.466;18.036;2023-04-06T10:53:20;99786.66;;;8.26;71.38
19208;BME280;9737;59.466;18.036;2023-04-06T10:55:50;99684.44;;;8.00;71.94
19208;BME280;9737;59.466;18.036;2023-04-06T10:58:18;99761.56;;;8.19;71.48
19208;BME280;9737;59.466;18.036;2023-04-06T11:00:48;99718.94;;;8.11;71.58
19208;BME280;9737;59.466;18.036;2023-04-06T11:03:17;99678.41;;;7.98;71.87
19208;BME280;9737;59.466;18.036;2023-04-06T11:05:46;99554.50;;;7.68;71.31
19208;BME280;9737;59.466;18.036;2023-04-06T11:08:33;99538.00;;;7.64;71.22
19208;BME280;9737;59.466;18.036;2023-04-06T11:11:05;99515.50;;;7.59;71.30
19208;BME280;9737;59.466;18.036;2023-04-06T11:13:38;99514.66;;;7.58;71.22
19208;BME280;9737;59.466;18.036;2023-04-06T11:16:12;99603.00;;;7.80;71.01
19208;BME280;9737;59.466;18.036;2023-04-06T11:18:48;99641.81;;;7.92;71.17
19208;BME280;9737;59.466;18.036;2023-04-06T11:21:17;99538.72;;;7.66;71.14
19208;BME280;9737;59.466;18.036;2023-04-06T11:23:45;99640.84;;;7.93;70.87
19208;BME280;9737;59.466;18.036;2023-04-06T11:26:15;99649.63;;;7.93;70.87
19208;BME280;9737;59.466;18.036;2023-04-06T11:28:43;99658.31;;;7.95;71.04
19208;BME280;9737;59.466;18.036;2023-04-06T11:31:13;99807.38;;;8.32;70.94
19208;BME280;9737;59.466;18.036;2023-04-06T11:33:40;99668.78;;;7.97;70.73
19208;BME280;9737;59.466;18.036;2023-04-06T11:36:08;100009.50;;;8.84;70.91
19208;BME280;9737;59.466;18.036;2023-04-06T11:38:39;100379.72;;;9.75;71.25
19208;BME280;9737;59.466;18.036;2023-04-06T11:41:06;101065.00;;;11.43;71.09
19208;BME280;9737;59.466;18.036;2023-04-06T11:43:34;101834.50;;;13.30;71.35
19208;BME280;9737;59.466;18.036;2023-04-06T11:46:03;102337.31;;;14.47;71.66
19208;BME280;9737;59.466;18.036;2023-04-06T11:48:43;101915.59;;;13.44;71.08
19208;BME280;9737;59.466;18.036;2023-04-06T11:51:12;101711.13;;;12.95;71.39
19208;BME280;9737;59.466;18.036;2023-04-06T11:53:44;101316.03;;;12.02;70.96
19208;BME280;9737;59.466;18.036;2023-04-06T11:56:22;101092.06;;;11.49;70.91
19208;BME280;9737;59.466;18.036;2023-04-06T11:58:51;100916.66;;;11.05;70.81
19208;BME280;9737;59.466;18.036;2023-04-06T12:01:19;100975.03;;;11.21;70.79
19208;BME280;9737;59.466;18.036;2023-04-06T12:03:48;101074.59;;;11.45;70.60
19208;BME280;9737;59.466;18.036;2023-04-06T12:06:17;101093.88;;;11.49;70.97
19208;BME280;9737;59.466;18.036;2023-04-06T12:08:45;101428.72;;;12.32;70.80
19208;BME280;9737;59.466;18.036;2023-04-06T12:11:13;101564.63;;;12.62;70.77
19208;BME280;9737;59.466;18.036;2023-04-06T12:13:41;101260.97;;;11.88;70.62
19208;BME280;9737;59.466;18.036;2023-04-06T12:16:08;101146.25;;;11.63;70.77
19208;BME280;9737;59.466;18.036;2023-04-06T12:18:36;100894.00;;;11.00;70.32
19208;BME280;9737;59.466;18.036;2023-04-06T12:21:06;100872.13;;;10.95;70.09
19208;BME280;9737;59.466;18.036;2023-04-06T12:23:34;100683.75;;;10.49;70.10
19208;BME280;9737;59.466;18.036;2023-04-06T12:26:02;100717.59;;;10.60;70.32
19208;BME280;9737;59.466;18.036;2023-04-06T12:28:30;100684.19;;;10.43;70.28
19208;BME280;9737;59.466;18.036;2023-04-06T12:30:58;100651.44;;;10.42;69.66
19208;BME280;9737;59.466;18.036;2023-04-06T12:33:26;100354.47;;;9.70;69.75
19208;BME280;9737;59.466;18.036;2023-04-06T12:35:54;100416.91;;;9.88;69.83
19208;BME280;9737;59.466;18.036;2023-04-06T12:38:24;100457.91;;;9.97;69.79
19208;BME280;9737;59.466;18.036;2023-04-06T12:40:53;100325.69;;;9.63;69.38
19208;BME280;9737;59.466;18.036;2023-04-06T12:43:20;100263.91;;;9.49;69.32
19208;BME280;9737;59.466;18.036;2023-04-06T12:45:49;100100.66;;;9.07;69.50
19208;BME280;9737;59.466;18.036;2023-04-06T12:48:17;100178.00;;;9.26;69.12
19208;BME280;9737;59.466;18.036;2023-04-06T12:50:54;100097.06;;;9.08;68.96
19208;BME280;9737;59.466;18.036;2023-04-06T12:53:23;100053.59;;;8.97;69.27
19208;BME280;9737;59.466;18.036;2023-04-06T12:55:52;100036.19;;;8.93;68.72
19208;BME280;9737;59.466;18.036;2023-04-06T12:58:21;100083.28;;;9.03;69.06
19208;BME280;9737;59.466;18.036;2023-04-06T13:00:50;99984.91;;;8.82;68.58
19208;BME280;9737;59.466;18.036;2023-04-06T13:03:18;99998.78;;;8.85;68.57
19208;BME280;9737;59.466;18.036;2023-04-06T13:05:47;100195.91;;;9.35;68.69
19208;BME280;9737;59.466;18.036;2023-04-06T13:08:17;100323.78;;;9.66;68.92
19208;BME280;9737;59.466;18.036;2023-04-06T13:10:48;100296.94;;;9.57;68.51
19208;BME280;9737;59.466;18.036;2023-04-06T13:13:17;100241.09;;;9.46;68.89